Highland, Minnesota
Current Conditions -  °F | °C
As of 12:15 AM on Saturday 25 Oct 2014 (Local Time) from KFKA Reporting Station
Haze Haze  
Wind Chill: 53°   Ceiling: 100
Heat Index: 53°   Visibility: 1.7mi
Dew Point: 52°   Wind: 6mph
Humidity: 97%   Direction: 220°SW
Pressure: 29.93"   Gusts: NA
Location:  43.7165°N, 91.9871°W
Report Text: KFKA 250515Z AUTO 22005KT 1 3/4SM BR BKN001 12/11 A2993 RMK AO2 T01150111
Loading
Personal Weather Stations






























Interactive Weather Map New forecast layout! Learn more

10-Day Weather Forecast

Advertisements
Track Severe Weather on mobile